createdAt,value
2023-04-16T00:02:01.640Z,7.46
2023-04-16T00:04:28.551Z,7.48
2023-04-16T00:06:55.556Z,7.48
2023-04-16T00:09:22.318Z,7.47
2023-04-16T00:11:49.048Z,7.44
2023-04-16T00:14:15.865Z,7.41
2023-04-16T00:16:42.657Z,7.39
2023-04-16T00:19:10.067Z,7.38
2023-04-16T00:21:37.018Z,7.39
2023-04-16T00:24:03.807Z,7.39
2023-04-16T00:26:31.004Z,7.32
2023-04-16T00:28:58.498Z,7.29
2023-04-16T00:31:29.848Z,7.39
2023-04-16T00:33:57.139Z,7.35
2023-04-16T00:36:24.804Z,7.38
2023-04-16T00:38:51.871Z,7.29
2023-04-16T00:41:18.768Z,7.39
2023-04-16T00:43:45.678Z,7.36
2023-04-16T00:46:13.168Z,7.29
2023-04-16T00:48:41.342Z,7.35
2023-04-16T00:51:08.884Z,7.35
2023-04-16T00:53:35.874Z,7.30
2023-04-16T00:56:07.424Z,7.29
2023-04-16T00:58:35.667Z,7.31
2023-04-16T01:01:02.732Z,7.33
2023-04-16T01:03:39.658Z,7.31
2023-04-16T01:06:07.590Z,7.29
2023-04-16T01:08:34.361Z,7.32
2023-04-16T01:11:01.560Z,7.33
2023-04-16T01:13:28.368Z,7.23
2023-04-16T01:15:55.220Z,7.32
2023-04-16T01:18:23.370Z,7.36
2023-04-16T01:20:51.378Z,7.36
2023-04-16T01:23:19.165Z,7.38
2023-04-16T01:25:47.291Z,7.28
2023-04-16T01:28:14.279Z,7.25
2023-04-16T01:30:41.560Z,7.29
2023-04-16T01:33:33.891Z,7.30
2023-04-16T01:36:00.911Z,7.24
2023-04-16T01:38:27.723Z,7.26
2023-04-16T01:40:58.048Z,7.26
2023-04-16T01:43:25.121Z,7.21
2023-04-16T01:45:54.110Z,7.26
2023-04-16T01:48:20.832Z,7.30
2023-04-16T01:50:47.581Z,7.32
2023-04-16T01:53:14.321Z,7.32
2023-04-16T01:55:41.055Z,7.31
2023-04-16T01:58:10.660Z,7.31
2023-04-16T02:00:37.916Z,7.29
2023-04-16T02:03:04.863Z,7.29
2023-04-16T02:05:31.729Z,7.27
2023-04-16T02:07:58.621Z,7.25
2023-04-16T02:10:25.499Z,7.27
2023-04-16T02:12:52.384Z,7.26
2023-04-16T02:15:19.260Z,7.24
2023-04-16T02:17:46.819Z,7.27
2023-04-16T02:20:13.748Z,7.28
2023-04-16T02:22:52.385Z,7.28
2023-04-16T02:25:22.410Z,7.27
2023-04-16T02:27:49.997Z,7.26
2023-04-16T02:30:25.386Z,7.30
2023-04-16T02:32:53.086Z,7.30
2023-04-16T02:35:20.667Z,7.26
2023-04-16T02:37:47.692Z,7.18
2023-04-16T02:40:14.824Z,7.30
2023-04-16T02:42:41.927Z,7.30
2023-04-16T02:45:09.961Z,7.29
2023-04-16T02:47:36.973Z,7.32
2023-04-16T02:50:04.127Z,7.32
2023-04-16T02:52:32.352Z,7.32
2023-04-16T02:54:59.759Z,7.34
2023-04-16T02:57:26.713Z,7.29
2023-04-16T02:59:53.574Z,7.30
2023-04-16T03:02:20.713Z,7.30
2023-04-16T03:04:47.435Z,7.27
2023-04-16T03:07:14.511Z,7.27
2023-04-16T03:09:41.537Z,7.26
2023-04-16T03:12:08.434Z,7.28
2023-04-16T03:14:35.154Z,7.27
2023-04-16T03:17:01.951Z,7.30
2023-04-16T03:19:28.703Z,7.30
2023-04-16T03:21:55.866Z,7.31
2023-04-16T03:24:22.890Z,7.30
2023-04-16T03:26:49.703Z,7.28
2023-04-16T03:29:16.606Z,7.25
2023-04-16T03:31:43.900Z,7.30
2023-04-16T03:34:10.895Z,7.32
2023-04-16T03:36:39.884Z,7.35
2023-04-16T03:39:07.168Z,7.34
2023-04-16T03:41:34.090Z,7.37
2023-04-16T03:44:00.871Z,7.39
2023-04-16T03:46:27.679Z,7.46
2023-04-16T03:48:54.575Z,7.44
2023-04-16T03:51:21.564Z,7.52
2023-04-16T03:53:48.288Z,7.42
2023-04-16T03:56:15.048Z,7.46
2023-04-16T03:58:41.779Z,7.43
2023-04-16T04:01:08.719Z,7.48
2023-04-16T04:03:37.137Z,7.44
2023-04-16T04:06:10.672Z,7.47
2023-04-16T04:08:37.556Z,7.45
2023-04-16T04:11:05.332Z,7.53
2023-04-16T04:13:33.943Z,7.47
2023-04-16T04:16:00.996Z,7.46
2023-04-16T04:18:28.771Z,7.43
2023-04-16T04:20:55.554Z,7.34
2023-04-16T04:23:26.955Z,7.36
2023-04-16T04:25:53.935Z,7.43
2023-04-16T04:28:20.789Z,7.40
2023-04-16T04:30:47.850Z,7.36
2023-04-16T04:33:14.649Z,7.34
2023-04-16T04:35:42.247Z,7.33
2023-04-16T04:38:09.052Z,7.35
2023-04-16T04:40:36.050Z,7.34
2023-04-16T04:43:03.754Z,7.36
2023-04-16T04:45:31.929Z,7.35
2023-04-16T04:47:59.126Z,7.32
2023-04-16T04:50:26.353Z,7.31
2023-04-16T04:52:53.099Z,7.38
2023-04-16T04:55:19.975Z,7.38
2023-04-16T04:57:46.786Z,7.34
2023-04-16T05:00:13.676Z,7.32
2023-04-16T05:03:02.142Z,7.38
2023-04-16T05:05:28.951Z,7.35
2023-04-16T05:07:55.749Z,7.42
2023-04-16T05:10:22.566Z,7.45
2023-04-16T05:12:49.390Z,7.43
2023-04-16T05:15:17.033Z,7.36
2023-04-16T05:17:43.779Z,7.43
2023-04-16T05:20:10.915Z,7.47
2023-04-16T05:22:37.808Z,7.38
2023-04-16T05:25:04.834Z,7.45
2023-04-16T05:27:31.898Z,7.46
2023-04-16T05:29:58.619Z,7.42
2023-04-16T05:32:27.145Z,7.43
2023-04-16T05:34:54.044Z,7.43
2023-04-16T05:37:20.781Z,7.46
2023-04-16T05:39:47.786Z,7.44
2023-04-16T05:42:14.505Z,7.51
2023-04-16T05:44:41.229Z,7.49
2023-04-16T05:47:09.456Z,7.44
2023-04-16T05:49:39.466Z,7.48
2023-04-16T05:52:07.407Z,7.53
2023-04-16T05:54:34.377Z,7.53
2023-04-16T05:57:02.091Z,7.50
2023-04-16T05:59:29.440Z,7.56
2023-04-16T06:01:56.356Z,7.56
2023-04-16T06:04:23.402Z,7.53
2023-04-16T06:06:50.203Z,7.48
2023-04-16T06:09:18.319Z,7.48
2023-04-16T06:11:45.161Z,7.51
2023-04-16T06:14:11.902Z,7.52
2023-04-16T06:16:38.672Z,7.56
2023-04-16T06:19:05.597Z,7.52
2023-04-16T06:21:32.533Z,7.49
2023-04-16T06:23:59.359Z,7.52
2023-04-16T06:26:26.783Z,7.55
2023-04-16T06:28:53.551Z,7.59
2023-04-16T06:31:20.683Z,7.53
2023-04-16T06:33:47.569Z,7.47
2023-04-16T06:36:14.530Z,7.39
2023-04-16T06:38:41.284Z,7.31
2023-04-16T06:41:08.071Z,7.36
2023-04-16T06:43:34.955Z,7.39
2023-04-16T06:46:01.682Z,7.34
2023-04-16T06:48:28.418Z,7.33
2023-04-16T06:50:56.751Z,7.26
2023-04-16T06:53:23.986Z,7.36
2023-04-16T06:55:51.851Z,7.35
2023-04-16T06:58:18.505Z,7.41
2023-04-16T07:00:46.168Z,7.43
2023-04-16T07:03:13.192Z,7.38
2023-04-16T07:05:40.082Z,7.38
2023-04-16T07:08:06.915Z,7.33
2023-04-16T07:10:33.633Z,7.33
2023-04-16T07:13:01.651Z,7.29
2023-04-16T07:15:28.744Z,7.30
2023-04-16T07:17:55.679Z,7.34
2023-04-16T07:20:22.563Z,7.39
2023-04-16T07:22:49.560Z,7.40
2023-04-16T07:25:16.256Z,7.36
2023-04-16T07:27:43.006Z,7.41
2023-04-16T07:30:09.864Z,7.44
2023-04-16T07:32:36.758Z,7.41
2023-04-16T07:35:03.894Z,7.47
2023-04-16T07:37:31.077Z,7.46
2023-04-16T07:39:57.794Z,7.36
2023-04-16T07:42:24.508Z,7.36
2023-04-16T07:44:51.269Z,7.26
2023-04-16T07:47:18.077Z,7.38
2023-04-16T07:49:44.812Z,7.30
2023-04-16T07:52:12.024Z,7.35
2023-04-16T07:54:38.759Z,7.41
2023-04-16T07:57:05.687Z,7.54
2023-04-16T07:59:32.397Z,7.48
2023-04-16T08:01:59.320Z,7.49
2023-04-16T08:04:26.654Z,7.55
2023-04-16T08:06:54.075Z,7.55
2023-04-16T08:09:22.413Z,7.64
2023-04-16T08:11:49.929Z,7.72
2023-04-16T08:14:17.278Z,7.82
2023-04-16T08:16:44.157Z,7.78
2023-04-16T08:19:11.035Z,7.84
2023-04-16T08:21:38.048Z,7.76
2023-04-16T08:24:04.815Z,7.69
2023-04-16T08:26:31.530Z,7.72
2023-04-16T08:29:01.565Z,7.66
2023-04-16T08:31:28.783Z,7.62
2023-04-16T08:33:55.546Z,7.67
2023-04-16T08:36:22.243Z,7.65
2023-04-16T08:38:48.993Z,7.71
2023-04-16T08:41:16.145Z,7.66
2023-04-16T08:43:45.687Z,7.58
2023-04-16T08:46:12.846Z,7.73
2023-04-16T08:48:42.931Z,7.73
2023-04-16T08:51:10.724Z,7.84
2023-04-16T08:53:48.544Z,7.91
2023-04-16T08:56:19.809Z,7.81
2023-04-16T08:58:48.854Z,7.82
2023-04-16T09:01:18.073Z,7.84
2023-04-16T09:03:47.859Z,7.92
2023-04-16T09:06:16.530Z,7.87
2023-04-16T09:08:46.760Z,7.89
2023-04-16T09:11:20.156Z,7.84
2023-04-16T09:13:47.647Z,7.99
2023-04-16T09:16:15.392Z,8.04
2023-04-16T09:18:42.304Z,8.02
2023-04-16T09:21:13.004Z,8.00
2023-04-16T09:23:40.651Z,8.08
2023-04-16T09:26:07.430Z,7.95
2023-04-16T09:28:48.518Z,8.06
2023-04-16T09:31:17.594Z,8.04
2023-04-16T09:34:01.369Z,8.01
2023-04-16T09:36:28.556Z,7.97
2023-04-16T09:38:57.586Z,8.00
2023-04-16T09:41:39.757Z,8.00
2023-04-16T09:44:06.580Z,7.99
2023-04-16T09:46:41.177Z,8.01
2023-04-16T09:49:12.549Z,7.95
2023-04-16T09:51:52.830Z,8.00
2023-04-16T09:54:20.551Z,7.90
2023-04-16T09:56:47.552Z,8.00
2023-04-16T09:59:22.102Z,8.08
2023-04-16T10:01:50.034Z,8.16
2023-04-16T10:04:17.155Z,8.20
2023-04-16T10:06:44.260Z,8.32
2023-04-16T10:09:11.305Z,8.39
2023-04-16T10:11:39.551Z,8.32
2023-04-16T10:14:06.382Z,8.37
2023-04-16T10:16:33.818Z,8.19
2023-04-16T10:19:00.768Z,8.16
2023-04-16T10:21:33.830Z,8.27
2023-04-16T10:24:01.808Z,8.31
2023-04-16T10:26:30.603Z,8.43
2023-04-16T10:28:58.805Z,8.42
2023-04-16T10:31:26.374Z,8.55
2023-04-16T10:33:53.804Z,8.68
2023-04-16T10:36:26.461Z,8.91
2023-04-16T10:38:57.925Z,8.96
2023-04-16T10:41:26.683Z,8.97
2023-04-16T10:43:54.041Z,9.03
2023-04-16T10:46:31.558Z,9.06
2023-04-16T10:49:12.226Z,9.03
2023-04-16T10:51:39.280Z,8.98
2023-04-16T10:54:08.919Z,9.00
2023-04-16T10:56:37.323Z,8.96
2023-04-16T10:59:10.895Z,8.83
2023-04-16T11:01:45.716Z,8.69
2023-04-16T11:04:22.019Z,8.76
2023-04-16T11:07:16.712Z,8.87
2023-04-16T11:10:06.610Z,8.93
2023-04-16T11:12:40.612Z,9.05
2023-04-16T11:15:10.332Z,9.22
2023-04-16T11:17:43.032Z,9.31
2023-04-16T11:20:23.941Z,9.47
2023-04-16T11:22:53.127Z,9.47
2023-04-16T11:25:25.974Z,9.55
2023-04-16T11:27:53.830Z,9.58
2023-04-16T11:30:33.827Z,9.73
2023-04-16T11:33:18.827Z,9.99
2023-04-16T11:35:57.931Z,10.00
2023-04-16T11:38:36.459Z,10.07
2023-04-16T11:41:03.588Z,10.06
2023-04-16T11:43:30.333Z,9.91
2023-04-16T11:46:10.037Z,9.93
2023-04-16T11:48:51.291Z,9.99
2023-04-16T11:51:19.163Z,9.93
2023-04-16T11:53:56.185Z,9.88
2023-04-16T11:56:28.551Z,10.05
2023-04-16T11:59:13.449Z,10.24
2023-04-16T12:01:42.251Z,10.08
2023-04-16T12:04:09.231Z,9.96
2023-04-16T12:06:36.704Z,9.92
2023-04-16T12:09:23.206Z,10.07
2023-04-16T12:11:49.927Z,10.16
2023-04-16T12:14:16.617Z,10.01
2023-04-16T12:16:43.474Z,10.00
2023-04-16T12:19:12.498Z,9.92
2023-04-16T12:21:44.860Z,9.90
2023-04-16T12:24:14.191Z,10.05
2023-04-16T12:26:46.729Z,10.18
2023-04-16T12:29:21.691Z,10.21
2023-04-16T12:31:50.083Z,10.47
2023-04-16T12:34:17.639Z,10.52
2023-04-16T12:36:46.108Z,10.48
2023-04-16T12:39:13.770Z,10.40
2023-04-16T12:41:42.281Z,10.46
2023-04-16T12:44:16.032Z,10.35
2023-04-16T12:46:44.017Z,10.30
2023-04-16T12:49:11.628Z,10.20
2023-04-16T12:51:38.993Z,10.23
2023-04-16T12:54:09.904Z,10.30
2023-04-16T12:56:36.751Z,10.22
2023-04-16T12:59:03.633Z,10.28
2023-04-16T13:01:30.914Z,10.21
2023-04-16T13:03:57.893Z,10.22
2023-04-16T13:06:24.845Z,10.06
2023-04-16T13:08:51.551Z,10.04
2023-04-16T13:11:19.309Z,9.88
2023-04-16T13:13:46.119Z,9.99
2023-04-16T13:16:12.957Z,9.94
2023-04-16T13:18:40.257Z,9.98
2023-04-16T13:21:07.106Z,9.99
2023-04-16T13:23:35.604Z,10.11
2023-04-16T13:26:02.295Z,10.04
2023-04-16T13:28:28.994Z,9.91
2023-04-16T13:30:55.868Z,9.92
2023-04-16T13:33:22.622Z,9.91
2023-04-16T13:35:50.123Z,9.99
2023-04-16T13:38:17.296Z,9.85
2023-04-16T13:40:44.710Z,9.88
2023-04-16T13:43:11.655Z,9.87
2023-04-16T13:45:38.674Z,9.92
2023-04-16T13:48:05.708Z,9.88
2023-04-16T13:50:32.464Z,9.87
2023-04-16T13:52:59.251Z,9.88
2023-04-16T13:55:26.235Z,9.88
2023-04-16T13:57:53.444Z,9.90
2023-04-16T14:00:20.488Z,9.92
2023-04-16T14:02:48.847Z,9.79
2023-04-16T14:05:16.117Z,9.86
2023-04-16T14:07:42.865Z,9.86
2023-04-16T14:10:10.102Z,9.85
2023-04-16T14:12:38.155Z,9.83
2023-04-16T14:15:06.826Z,9.84
2023-04-16T14:17:33.757Z,9.88
2023-04-16T14:20:00.751Z,9.83
2023-04-16T14:22:27.482Z,9.83
2023-04-16T14:24:54.138Z,9.82
2023-04-16T14:27:21.115Z,9.84
2023-04-16T14:29:47.845Z,9.79
2023-04-16T14:32:14.901Z,9.80
2023-04-16T14:34:41.699Z,9.77
2023-04-16T14:37:08.537Z,9.74
2023-04-16T14:39:36.660Z,9.75
2023-04-16T14:42:03.402Z,9.73
2023-04-16T14:44:30.229Z,9.69
2023-04-16T14:46:57.189Z,9.75
2023-04-16T14:49:24.163Z,9.74
2023-04-16T14:51:52.381Z,9.68
2023-04-16T14:54:19.982Z,9.60
2023-04-16T14:56:47.493Z,9.63
2023-04-16T14:59:14.266Z,9.53
2023-04-16T15:01:41.587Z,9.52
2023-04-16T15:04:09.202Z,9.53
2023-04-16T15:06:36.575Z,9.49
2023-04-16T15:09:04.050Z,9.51
2023-04-16T15:11:30.933Z,9.46
2023-04-16T15:13:57.682Z,9.47
2023-04-16T15:16:24.877Z,9.47
2023-04-16T15:18:52.826Z,9.45
2023-04-16T15:21:19.604Z,9.44
2023-04-16T15:23:46.330Z,9.46
2023-04-16T15:26:13.190Z,9.50
2023-04-16T15:28:39.925Z,9.47
2023-04-16T15:31:06.801Z,9.45
2023-04-16T15:33:33.627Z,9.47
2023-04-16T15:36:00.398Z,9.45
2023-04-16T15:38:29.782Z,9.53
2023-04-16T15:40:59.867Z,9.50
2023-04-16T15:43:29.977Z,9.49
2023-04-16T15:45:57.339Z,9.44
2023-04-16T15:48:24.467Z,9.43
2023-04-16T15:50:51.666Z,9.54
2023-04-16T15:53:18.477Z,9.49
2023-04-16T15:55:45.416Z,9.43
2023-04-16T15:58:12.956Z,9.45
2023-04-16T16:00:39.785Z,9.37
2023-04-16T16:03:06.818Z,9.36
2023-04-16T16:05:33.696Z,9.39
2023-04-16T16:08:01.675Z,9.40
2023-04-16T16:10:28.910Z,9.40
2023-04-16T16:12:57.218Z,9.30
2023-04-16T16:15:23.966Z,9.34
2023-04-16T16:17:52.861Z,9.33
2023-04-16T16:20:19.842Z,9.24
2023-04-16T16:22:48.310Z,9.21
2023-04-16T16:25:15.188Z,9.31
2023-04-16T16:27:42.149Z,9.25
2023-04-16T16:30:09.628Z,9.33
2023-04-16T16:32:37.690Z,9.30
2023-04-16T16:35:04.599Z,9.30
2023-04-16T16:37:31.352Z,9.27
2023-04-16T16:39:58.103Z,9.23
2023-04-16T16:42:24.872Z,9.20
2023-04-16T16:44:51.662Z,9.21
2023-04-16T16:47:18.593Z,9.26
2023-04-16T16:49:45.644Z,9.28
2023-04-16T16:52:12.483Z,9.28
2023-04-16T16:54:39.208Z,9.31
2023-04-16T16:57:05.899Z,9.29
2023-04-16T16:59:32.639Z,9.29
2023-04-16T17:01:59.413Z,9.33
2023-04-16T17:04:26.335Z,9.34
2023-04-16T17:06:53.219Z,9.30
2023-04-16T17:09:20.212Z,9.37
2023-04-16T17:11:47.164Z,9.36
2023-04-16T17:14:13.960Z,9.35
2023-04-16T17:16:40.788Z,9.34
2023-04-16T17:19:07.546Z,9.34
2023-04-16T17:21:34.257Z,9.30
2023-04-16T17:24:01.096Z,9.30
2023-04-16T17:26:27.851Z,9.44
2023-04-16T17:28:56.709Z,9.48
2023-04-16T17:31:24.988Z,9.43
2023-04-16T17:33:53.689Z,9.49
2023-04-16T17:36:22.888Z,9.42
2023-04-16T17:38:50.639Z,9.47
2023-04-16T17:41:17.395Z,9.46
2023-04-16T17:43:44.124Z,9.39
2023-04-16T17:46:11.864Z,9.39
2023-04-16T17:48:38.658Z,9.42
2023-04-16T17:51:10.453Z,9.45
2023-04-16T17:53:37.279Z,9.39
2023-04-16T17:56:04.140Z,9.44
2023-04-16T17:58:35.305Z,9.37
2023-04-16T18:01:03.330Z,9.41
2023-04-16T18:03:30.173Z,9.43
2023-04-16T18:05:57.124Z,9.43
2023-04-16T18:08:24.587Z,9.42
2023-04-16T18:10:52.106Z,9.47
2023-04-16T18:13:18.885Z,9.38
2023-04-16T18:15:45.680Z,9.44
2023-04-16T18:18:12.366Z,9.45
2023-04-16T18:20:39.063Z,9.44
2023-04-16T18:23:05.963Z,9.43
2023-04-16T18:25:35.228Z,9.47
2023-04-16T18:28:03.843Z,9.44
2023-04-16T18:30:30.884Z,9.48
2023-04-16T18:35:27.300Z,9.47
2023-04-16T18:37:54.010Z,9.49
2023-04-16T18:40:20.887Z,9.52
2023-04-16T18:42:47.689Z,9.56
2023-04-16T18:45:19.591Z,9.56
2023-04-16T18:47:48.327Z,9.55
2023-04-16T18:50:15.050Z,9.52
2023-04-16T18:52:41.975Z,9.58
2023-04-16T18:55:09.044Z,9.58
2023-04-16T18:57:35.876Z,9.63
2023-04-16T19:00:09.044Z,9.57
2023-04-16T19:02:35.991Z,9.68
2023-04-16T19:05:02.654Z,9.70
2023-04-16T19:07:29.485Z,9.72
2023-04-16T19:09:56.508Z,9.68
2023-04-16T19:12:23.453Z,9.73
2023-04-16T19:14:50.292Z,9.74
2023-04-16T19:17:17.181Z,9.72
2023-04-16T19:19:43.975Z,9.74
2023-04-16T19:22:10.835Z,9.63
2023-04-16T19:24:37.545Z,9.65
2023-04-16T19:27:04.293Z,9.67
2023-04-16T19:29:35.038Z,9.64
2023-04-16T19:32:02.611Z,9.62
2023-04-16T19:34:29.424Z,9.60
2023-04-16T19:36:56.260Z,9.64
2023-04-16T19:39:26.824Z,9.58
2023-04-16T19:41:53.661Z,9.56
2023-04-16T19:44:22.434Z,9.55
2023-04-16T19:46:49.195Z,9.52
2023-04-16T19:49:16.051Z,9.51
2023-04-16T19:51:42.888Z,9.55
2023-04-16T19:54:09.649Z,9.51
2023-04-16T19:56:36.697Z,9.52
2023-04-16T19:59:03.404Z,9.53
2023-04-16T20:01:32.874Z,9.50
2023-04-16T20:03:59.691Z,9.50
2023-04-16T20:06:26.862Z,9.51
2023-04-16T20:08:53.987Z,9.52
2023-04-16T20:11:20.865Z,9.48
2023-04-16T20:13:54.456Z,9.48
2023-04-16T20:16:24.104Z,9.50
2023-04-16T20:18:54.228Z,9.48
2023-04-16T20:21:25.182Z,9.51
2023-04-16T20:23:52.351Z,9.55
2023-04-16T20:26:19.330Z,9.55
2023-04-16T20:28:46.292Z,9.56
2023-04-16T20:31:13.056Z,9.61
2023-04-16T20:33:40.072Z,9.57
2023-04-16T20:36:07.280Z,9.55
2023-04-16T20:38:35.540Z,9.58
2023-04-16T20:41:12.478Z,9.55
2023-04-16T20:43:42.060Z,9.57
2023-04-16T20:46:09.254Z,9.55
2023-04-16T20:48:35.967Z,9.61
2023-04-16T20:51:04.233Z,9.52
2023-04-16T20:53:32.410Z,9.63
2023-04-16T20:56:00.596Z,9.68
2023-04-16T20:58:27.547Z,9.62
2023-04-16T21:00:56.795Z,9.56
2023-04-16T21:03:24.560Z,9.57
2023-04-16T21:05:54.777Z,9.58
2023-04-16T21:08:22.396Z,9.54
2023-04-16T21:10:50.035Z,9.58
2023-04-16T21:13:17.056Z,9.54
2023-04-16T21:15:45.523Z,9.56
2023-04-16T21:18:12.848Z,9.52
2023-04-16T21:20:40.012Z,9.55
2023-04-16T21:23:06.993Z,9.51
2023-04-16T21:25:33.765Z,9.54
2023-04-16T21:28:00.611Z,9.48
2023-04-16T21:30:27.578Z,9.50
2023-04-16T21:32:54.857Z,9.53
2023-04-16T21:35:21.639Z,9.50
2023-04-16T21:37:48.391Z,9.54
2023-04-16T21:40:15.125Z,9.50
2023-04-16T21:42:42.491Z,9.53
2023-04-16T21:45:10.419Z,9.49
2023-04-16T21:47:38.415Z,9.59
2023-04-16T21:50:05.920Z,9.56
2023-04-16T21:52:33.133Z,9.49
2023-04-16T21:55:00.535Z,9.49
2023-04-16T21:57:27.278Z,9.53
2023-04-16T21:59:54.036Z,9.50
2023-04-16T22:02:20.946Z,9.50
2023-04-16T22:04:48.682Z,9.50
2023-04-16T22:07:16.954Z,9.50
2023-04-16T22:09:43.949Z,9.48
2023-04-16T22:12:10.691Z,9.49
2023-04-16T22:14:43.966Z,9.54
2023-04-16T22:17:11.144Z,9.55
2023-04-16T22:19:39.303Z,9.55
2023-04-16T22:22:06.302Z,9.53
2023-04-16T22:24:32.981Z,9.53
2023-04-16T22:26:59.854Z,9.54
2023-04-16T22:29:26.556Z,9.56
2023-04-16T22:31:53.389Z,9.47
2023-04-16T22:34:20.309Z,9.50
2023-04-16T22:36:47.604Z,9.49
2023-04-16T22:39:14.608Z,9.39
2023-04-16T22:41:41.594Z,9.41
2023-04-16T22:44:08.428Z,9.36
2023-04-16T22:46:35.345Z,9.39
2023-04-16T22:49:02.727Z,9.32
2023-04-16T22:51:30.709Z,9.35
2023-04-16T22:53:57.452Z,9.33
2023-04-16T22:56:28.724Z,9.43
2023-04-16T22:58:55.966Z,9.33
2023-04-16T23:01:23.776Z,9.39
2023-04-16T23:03:50.565Z,9.35
2023-04-16T23:06:17.292Z,9.47
2023-04-16T23:08:44.010Z,9.46
2023-04-16T23:11:10.814Z,9.50
2023-04-16T23:13:37.675Z,9.53
2023-04-16T23:16:04.702Z,9.51
2023-04-16T23:18:31.703Z,9.55
2023-04-16T23:20:58.389Z,9.55
2023-04-16T23:23:25.197Z,9.56
2023-04-16T23:25:55.115Z,9.58
2023-04-16T23:28:22.235Z,9.57
2023-04-16T23:30:52.883Z,9.51
2023-04-16T23:33:19.831Z,9.56
2023-04-16T23:35:47.430Z,9.56
2023-04-16T23:38:14.248Z,9.59
2023-04-16T23:40:41.273Z,9.54
2023-04-16T23:43:08.027Z,9.54
2023-04-16T23:45:34.791Z,9.54
2023-04-16T23:48:01.804Z,9.54
2023-04-16T23:50:28.547Z,9.52
2023-04-16T23:52:55.386Z,9.38
2023-04-16T23:55:22.083Z,9.46
2023-04-16T23:57:48.803Z,9.46
